Terminal Aerodrome Forecast
Issued by NWS

Home | Current Version | Previous Version | Text Only | Print | Product List | Glossary Off
Versions: 1 2 3 4 5 6 7 8 9 10 11 12 13 14 15 16

000
FTUS43 KTOP 282320
TAFMHK
TAF
KMHK 282320Z 2900/2924 05005KT P6SM BKN250
     FM290100 04005KT P6SM VCTS SCT060CB
     FM290200 03005KT P6SM -TSRA BKN050CB
      TEMPO 2902/2905 3SM TSRA BKN020CB
     FM290500 03005KT P6SM SHRA VCTS BKN040CB
     FM290900 VRB02KT P6SM OVC120=

USA.gov is the U.S. government's official web portal to all federal, state and local government web resources and services.